Terminal Aerodrome Forecast
Issued by NWS

Home | Current Version | Previous Version | Text Only | Print | Product List | Glossary On
Versions: 1 2 3 4 5 6 7 8 9 10 11 12 13 14
000
FTUS42 KMLB 242321
TAFSFB
TAF
KSFB 242321Z 2500/2524 05011KT P6SM FEW035 SCT150 BKN250
     FM250200 04006KT P6SM FEW020 SCT150 BKN250
     FM251500 05012KT P6SM VCSH SCT025 BKN080
     FM251800 05015G21KT P6SM VCSH FEW045 SCT150 BKN250=

USA.gov is the U.S. government's official web portal to all federal, state and local government web resources and services.